LEWISTON (LEW)

Elevation: 1870' · TRINITY R basin · Operator: US Bureau of Reclamation

Provisional data, subject to change.
Query executed Wednesday at 12:19:33   clock

Select a sensor type for a plot of data.
Note: Reservoir Flows are daily averages.

Earlier

Date RES ELE    STORAGE    RES CHG    OUTFLOW    INFLOW    EVAP    RIV REL    SPILL    DIS PWR   
 FEET   AF   AF   CFS   CFS   CFS   CFS   CFS   CFS  
06/02/2015 1901.26 14105 223 1664 1778 2 1182 1052 0
06/03/2015 1900.94 13867 -238 1740 1626 6 1179 1049 0
06/04/2015 1900.28 13381 -486 1946 1706 5 1172 1042 0
06/05/2015 1900.41 13477 96 1737 1790 5 1118 988 0
06/06/2015 1900.78 13749 272 1829 1971 5 1107 977 0
06/07/2015 1900.81 13771 22 1745 1763 7 1102 972 0
06/08/2015 1900.80 13764 -7 1823 1826 7 991 861 0
06/09/2015 1900.41 13477 -287 1988 1850 7 891 761 0
06/10/2015 1900.35 13433 -44 1871 1855 6 875 745 0
06/11/2015 1900.68 13675 242 1741 1868 5 782 652 0
06/12/2015 1901.06 13956 281 1762 1913 9 686 556 0
06/13/2015 1900.50 13543 -413 1764 1563 7 689 559 0
06/14/2015 1900.37 13447 -96 1904 1863 7 685 555 0
06/15/2015 1900.50 13543 96 1829 1884 7 684 554 0
06/16/2015 1901.43 14233 690 1475 1830 7 686 556 0
06/17/2015 1900.63 13639 -594 1851 1559 7 684 554 0
06/18/2015 1901.46 14255 616 1490 1806 5 684 554 0
06/19/2015 1901.22 14076 -179 1811 1728 7 627 497 0
06/20/2015 1900.62 13631 -445 2113 1896 7 622 492 0
06/21/2015 1900.61 13624 -7 1849 1851 6 621 491 0
06/22/2015 1900.21 13330 -294 2011 1870 7 628 498 0
06/23/2015 1900.42 13484 154 1827 1913 8 629 499 0
06/24/2015 1900.32 13411 -73 1894 1863 6 629 499 0
06/25/2015 1900.84 13793 382 1835 2035 7 629 499 0
06/26/2015 1900.58 13602 -191 2121 2032 7 629 499 0
06/27/2015 1900.46 13514 -88 1943 1907 8 629 499 0
06/28/2015 1900.68 13675 161 1894 1983 8 629 499 0
06/29/2015 1901.34 14165 490 1723 1975 5 629 499 0
06/30/2015 1900.60 13617 -548 2310 2042 8 629 499 0
07/01/2015 -- -- -- -- -- -- -- -- --

Later | Latest

Warning! This data is preliminary and subject to revision.

Show LEW Map | Plot LEW Data | 1 Month LEW Data | Real-Time LEW Data | LEW Info